createdAt,value
2023-03-26T00:10:12.834Z,1005.3
2023-03-26T00:15:12.552Z,1005.4
2023-03-26T00:20:11.777Z,1005.4
2023-03-26T00:25:11.197Z,1005.4
2023-03-26T00:30:09.511Z,1005.4
2023-03-26T00:35:09.017Z,1005.4
2023-03-26T00:45:10.483Z,1005.6
2023-03-26T00:50:07.799Z,1005.6
2023-03-26T00:55:07.663Z,1005.6
2023-03-26T01:04:33.881Z,1005.6
2023-03-26T02:04:11.452Z,1005.6
2023-03-26T02:09:11.088Z,1005.6
2023-03-26T02:14:09.090Z,1005.6
2023-03-26T02:20:02.218Z,1005.5
2023-03-26T02:24:08.825Z,1005.5
2023-03-26T02:29:06.748Z,1005.4
2023-03-26T02:34:07.244Z,1005.3
2023-03-26T02:39:06.397Z,1005.4
2023-03-26T02:44:04.483Z,1005.4
2023-03-26T02:49:04.046Z,1005.4
2023-03-26T02:54:04.240Z,1005.3
2023-03-26T02:59:04.147Z,1005.3
2023-03-26T03:04:02.838Z,1005.3
2023-03-26T03:09:02.586Z,1005.3
2023-03-26T03:14:02.593Z,1005.2
2023-03-26T03:19:02.546Z,1005.4
2023-03-26T03:24:02.810Z,1005.3
2023-03-26T03:29:00.363Z,1005.3
2023-03-26T03:34:00.488Z,1005.3
2023-03-26T03:38:59.383Z,1005.3
2023-03-26T03:48:57.558Z,1005.3
2023-03-26T03:53:56.840Z,1005.4
2023-03-26T03:58:57.195Z,1005.4
2023-03-26T04:05:16.446Z,1005.4
2023-03-26T04:15:16.358Z,1005.3
2023-03-26T06:04:13.675Z,1005.2
2023-03-26T06:09:22.594Z,1005.3
2023-03-26T06:14:09.423Z,1005.2
2023-03-26T06:19:17.924Z,1005.1
2023-03-26T06:24:09.112Z,1005.1
2023-03-26T06:29:07.546Z,1005.2
2023-03-26T06:34:07.201Z,1005.1
2023-03-26T06:39:07.356Z,1005.1
2023-03-26T06:44:06.672Z,1005.3
2023-03-26T06:49:06.153Z,1005.3
2023-03-26T06:54:05.637Z,1005.3
2023-03-26T06:59:06.176Z,1005.2
2023-03-26T07:04:10.467Z,1005.2
2023-03-26T07:09:06.579Z,1005.3
2023-03-26T07:14:03.453Z,1005.3
2023-03-26T07:19:04.088Z,1005.3
2023-03-26T07:24:05.567Z,1005.3
2023-03-26T07:29:15.966Z,1005.3
2023-03-26T07:34:02.423Z,1005.2
2023-03-26T07:39:01.740Z,1005.2
2023-03-26T07:44:01.190Z,1005.2
2023-03-26T07:49:01.900Z,1005.2
2023-03-26T07:53:58.838Z,1005.1
2023-03-26T08:00:31.088Z,1005.1
2023-03-26T08:10:28.761Z,1005.1
2023-03-26T08:15:17.979Z,1005
2023-03-26T08:20:17.355Z,1005
2023-03-26T08:30:16.852Z,1005.1
2023-03-26T08:35:16.198Z,1005.1
2023-03-26T08:40:15.776Z,1005.2
2023-03-26T08:50:14.081Z,1005.1
2023-03-26T08:55:13.398Z,1005
2023-03-26T08:59:35.668Z,1005.1
2023-03-26T09:04:35.202Z,1005.1
2023-03-26T09:09:40.426Z,1005
2023-03-26T09:14:34.477Z,1004.9
2023-03-26T09:19:33.836Z,1005.1
2023-03-26T09:24:34.577Z,1005
2023-03-26T09:29:33.190Z,1005.1
2023-03-26T09:34:32.181Z,1005.1
2023-03-26T09:39:31.542Z,1005.1
2023-03-26T09:44:30.909Z,1005
2023-03-26T09:49:29.371Z,1005.1
2023-03-26T09:54:29.006Z,1005.1
2023-03-26T09:59:16.172Z,1005.2
2023-03-26T10:04:17.081Z,1005.2
2023-03-26T10:09:14.808Z,1005.3
2023-03-26T10:14:14.399Z,1005.2
2023-03-26T10:19:14.687Z,1005.2
2023-03-26T10:24:14.066Z,1005.2
2023-03-26T10:29:12.112Z,1005.1
2023-03-26T10:34:19.451Z,1005.1
2023-03-26T10:39:11.495Z,1005.1
2023-03-26T10:44:22.429Z,1005.2
2023-03-26T10:49:09.219Z,1005.2
2023-03-26T10:54:09.397Z,1005.3
2023-03-26T10:59:10.949Z,1005.2
2023-03-26T11:04:08.129Z,1005.2
2023-03-26T11:09:06.356Z,1005.3
2023-03-26T11:14:05.808Z,1005.3
2023-03-26T11:19:06.183Z,1005.3
2023-03-26T11:24:16.427Z,1005.3
2023-03-26T11:29:43.490Z,1005.3
2023-03-26T11:34:06.874Z,1005.3
2023-03-26T11:39:05.254Z,1005.2
2023-03-26T11:44:04.814Z,1005.3
2023-03-26T11:49:05.582Z,1005.3
2023-03-26T11:54:03.347Z,1005.2
2023-03-26T11:59:02.645Z,1005.3
2023-03-26T12:04:03.309Z,1005.2
2023-03-26T12:09:02.745Z,1005.1
2023-03-26T12:14:02.017Z,1005.1
2023-03-26T12:19:01.913Z,1005.2
2023-03-26T12:24:01.418Z,1005.2
2023-03-26T12:29:04.353Z,1005.1
2023-03-26T12:33:59.552Z,1005.2
2023-03-26T12:40:20.673Z,1005.2
2023-03-26T12:45:14.070Z,1005.2
2023-03-26T12:53:56.658Z,1005.1
2023-03-26T12:58:56.416Z,1005.1
2023-03-26T13:20:16.161Z,1005.2
2023-03-26T13:30:16.232Z,1005.3
2023-03-26T13:40:13.792Z,1005.3
2023-03-26T13:45:25.753Z,1005.3
2023-03-26T13:50:13.025Z,1005.3
2023-03-26T13:55:12.096Z,1005.3
2023-03-26T14:04:31.343Z,1005.5
2023-03-26T14:09:32.283Z,1005.5
2023-03-26T14:14:29.668Z,1005.5
2023-03-26T14:19:29.650Z,1005.6
2023-03-26T14:24:28.614Z,1005.6
2023-03-26T14:29:27.862Z,1005.6
2023-03-26T14:34:26.287Z,1005.7
2023-03-26T14:39:25.978Z,1005.6
2023-03-26T14:44:25.752Z,1005.8
2023-03-26T14:49:24.861Z,1005.7
2023-03-26T14:54:34.749Z,1005.7
2023-03-26T14:59:10.878Z,1005.7
2023-03-26T15:04:11.276Z,1005.9
2023-03-26T15:09:09.693Z,1005.8
2023-03-26T15:14:08.973Z,1006
2023-03-26T15:19:08.467Z,1006
2023-03-26T15:24:08.153Z,1006.2
2023-03-26T15:29:07.564Z,1006.2
2023-03-26T15:34:06.019Z,1006.1
2023-03-26T15:39:05.601Z,1006.2
2023-03-26T15:44:40.904Z,1006.4
2023-03-26T15:49:04.576Z,1006.3
2023-03-26T15:54:03.984Z,1006.4
2023-03-26T15:59:03.983Z,1006.5
2023-03-26T16:04:03.710Z,1006.5
2023-03-26T16:09:03.667Z,1006.5
2023-03-26T16:14:04.233Z,1006.6
2023-03-26T16:19:00.931Z,1006.7
2023-03-26T16:24:09.483Z,1006.8
2023-03-26T16:28:59.818Z,1006.8
2023-03-26T16:33:59.272Z,1007
2023-03-26T16:38:57.735Z,1007
2023-03-26T16:43:57.109Z,1007
2023-03-26T16:48:56.898Z,1007.1
2023-03-26T16:53:57.747Z,1007.2
2023-03-26T16:58:55.385Z,1007.2
2023-03-26T17:00:27.851Z,1007.3
2023-03-26T17:15:13.753Z,1007.5
2023-03-26T17:55:11.441Z,1008.1
2023-03-26T18:04:15.620Z,1008.2
2023-03-26T18:19:14.081Z,1008.5
2023-03-26T19:05:28.254Z,1009
2023-03-26T19:10:27.630Z,1009.1
2023-03-26T19:15:27.228Z,1009.1
2023-03-26T19:20:26.863Z,1009.1
2023-03-26T19:25:26.731Z,1009.1
2023-03-26T19:30:25.822Z,1009.2
2023-03-26T19:35:26.744Z,1009.3
2023-03-26T21:19:18.028Z,1010.5
2023-03-26T21:24:17.442Z,1010.6
2023-03-26T21:29:16.993Z,1010.7
2023-03-26T21:34:16.315Z,1010.7
2023-03-26T21:39:16.281Z,1010.8
2023-03-26T21:44:15.280Z,1010.8
2023-03-26T21:55:07.291Z,1011
2023-03-26T21:59:13.739Z,1011.1
2023-03-26T22:55:40.130Z,1011.9
2023-03-26T22:59:49.498Z,1012
2023-03-26T23:04:53.168Z,1012.1
2023-03-26T23:09:48.407Z,1012.1
2023-03-26T23:14:48.161Z,1012.2
2023-03-26T23:19:48.979Z,1012.2
2023-03-26T23:24:46.244Z,1012.3
2023-03-26T23:29:45.282Z,1012.3
2023-03-26T23:34:51.610Z,1012.4
2023-03-26T23:39:44.036Z,1012.5
2023-03-26T23:44:43.567Z,1012.5
2023-03-26T23:49:43.219Z,1012.6
2023-03-26T23:54:42.932Z,1012.7
2023-03-26T23:59:27.170Z,1012.7
